MSC Giovanna — 3FRB9 — position and weather

sailwx.info

Track history (hours):
 
Tides and Currents Weather Stations Pressure Air Temp Water Temp Dewpoint Dewpoint Depression Visibility Wind Speed Wind Dir Waves Ship Positions

MSC Giovanna

Last reported at 2016-Feb-05 21:33 UTC. Time now 2016-Feb-09 05:39 UTC.
Position N 32°55' E 034°45'.

Length 178 m; draft 8.1 m.

Type: Ship. MMSI: 357702000.

Date/timePositionNaut miles runAvg speedWind from/ knotsBaromVisibWave heightAir tempDewpointWater temp
2016-Feb-05 21:33N 32°55' E 034°45'  
2016-Feb-03 01:32N 32°54' E 034°53'1313.6
2016-Feb-03 00:33N 32°41' E 034°47'1414.1
2016-Feb-02 23:33N 32°28' E 034°42'1413.9
2016-Feb-02 22:33N 32°15' E 034°37'24 0.5
2016-Jan-31 20:27N 31°51' E 034°34'51712.9
2016-Jan-30 04:23N 36°59' E 026°12'2814.5
2016-Jan-30 02:28N 37°23' E 025°56'1314.0
2016-Jan-30 01:33N 37°36' E 025°52'  
2016-Jan-26 22:29N 37°53' E 015°44'1212.4
2016-Jan-26 21:33N 38°01' E 015°34'  
Track history (hours):
 
Tides and Currents Weather Stations Pressure Air Temp Water Temp Dewpoint Dewpoint Depression Visibility Wind Speed Wind Dir Waves Ship Positions

MSC Giovanna

Last reported at 2016-Feb-05 21:33 UTC. Time now 2016-Feb-09 05:39 UTC.
Position N 32°55' E 034°45'.

Length 178 m; draft 8.1 m.

Type: Ship. MMSI: 357702000.

Date/timePositionNaut miles runAvg speedWind from/ knotsBaromVisibWave heightAir tempDewpointWater temp
2016-Feb-05 21:33N 32°55' E 034°45'  
2016-Feb-03 01:32N 32°54' E 034°53'1313.6
2016-Feb-03 00:33N 32°41' E 034°47'1414.1
2016-Feb-02 23:33N 32°28' E 034°42'1413.9
2016-Feb-02 22:33N 32°15' E 034°37'24 0.5
2016-Jan-31 20:27N 31°51' E 034°34'51712.9
2016-Jan-30 04:23N 36°59' E 026°12'2814.5
2016-Jan-30 02:28N 37°23' E 025°56'1314.0
2016-Jan-30 01:33N 37°36' E 025°52'  
2016-Jan-26 22:29N 37°53' E 015°44'1212.4
2016-Jan-26 21:33N 38°01' E 015°34'  

Dump ship's entire track history